Time;durP1;ratioP1;P1;durP2;ratioP2;P2;SDS_P1;SDS_P2;PMS_P1;PMS_P2;Temp;Humidity;BMP_temperature;BMP_pressure;BME280_temperature;BME280_humidity;BME280_pressure;Samples;Min_cycle;Max_cycle;Signal;HPM_P1;HPM_P2
2022/01/22 00:01:29;;;;;;;19.80;3.42;;;6.40;99.90;;;;;;5003756;28;20392;-78
2022/01/22 00:03:54;;;;;;;23.65;3.08;;;6.40;99.90;;;;;;4999594;28;20042;-78
2022/01/22 00:06:20;;;;;;;24.15;2.50;;;6.40;99.90;;;;;;5019152;28;20041;-78
2022/01/22 00:08:46;;;;;;;26.50;2.83;;;6.40;99.90;;;;;;5003773;28;20133;-78
2022/01/22 00:11:12;;;;;;;28.88;2.53;;;6.40;99.90;;;;;;4985513;28;20077;-78
2022/01/22 00:16:22;;;;;;;16.90;2.22;;;6.40;99.90;;;;;;5017884;28;20045;-78
2022/01/22 00:18:48;;;;;;;25.23;2.58;;;6.40;99.90;;;;;;4986098;28;20049;-78
2022/01/22 00:21:13;;;;;;;20.10;1.90;;;6.40;99.90;;;;;;5003728;28;20048;-78
2022/01/22 00:23:44;;;;;;;24.98;2.63;;;6.40;99.90;;;;;;4982767;28;20037;-78
2022/01/22 00:26:09;;;;;;;17.30;2.50;;;6.50;99.90;;;;;;4999245;28;20374;-78
2022/01/22 00:28:35;;;;;;;20.88;2.65;;;6.50;99.90;;;;;;4981745;28;20049;-78
2022/01/22 00:31:00;;;;;;;17.63;2.47;;;6.40;99.90;;;;;;4998387;28;20120;-78
2022/01/22 00:33:26;;;;;;;21.75;2.67;;;6.40;99.90;;;;;;5015984;28;20089;-78
2022/01/22 00:35:53;;;;;;;17.98;2.83;;;6.40;99.90;;;;;;4997802;28;20041;-78
2022/01/22 00:38:19;;;;;;;19.25;2.70;;;6.50;99.90;;;;;;4980562;28;20053;-78
2022/01/22 00:40:50;;;;;;;20.75;3.00;;;6.50;99.90;;;;;;4981322;28;20045;-78
2022/01/22 00:43:17;;;;;;;23.27;3.47;;;6.40;99.90;;;;;;4998343;28;20042;-78
2022/01/22 00:45:42;;;;;;;20.08;2.58;;;6.40;99.90;;;;;;4998182;28;20046;-78
2022/01/22 00:48:08;;;;;;;29.80;2.95;;;6.50;99.90;;;;;;4997283;28;20049;-78
2022/01/22 00:50:33;;;;;;;25.30;3.00;;;6.50;99.90;;;;;;5016318;28;20038;-78
2022/01/22 00:52:59;;;;;;;25.27;3.17;;;6.50;99.90;;;;;;5014943;28;20046;-78
2022/01/22 00:55:25;;;;;;;24.55;1.98;;;6.50;99.90;;;;;;5000807;28;20046;-78
2022/01/22 00:57:50;;;;;;;32.95;3.10;;;6.50;99.90;;;;;;4999169;28;20395;-78
2022/01/22 01:00:18;;;;;;;23.23;2.40;;;6.50;99.90;;;;;;5016369;28;20127;-78
2022/01/22 01:02:44;;;;;;;14.38;2.03;;;6.50;99.90;;;;;;4988648;28;20091;-78
2022/01/22 01:05:11;;;;;;;21.13;2.22;;;6.50;99.90;;;;;;5013041;28;20046;-78
2022/01/22 01:07:38;;;;;;;27.27;2.47;;;6.50;99.90;;;;;;5015091;28;20507;-78
2022/01/22 01:10:06;;;;;;;18.95;1.98;;;6.50;99.90;;;;;;4998331;28;20049;-78
2022/01/22 01:12:35;;;;;;;20.30;2.75;;;6.60;99.90;;;;;;5012256;28;20041;-78
2022/01/22 01:36:21;;;;;;;32.05;2.55;;;6.60;99.90;;;;;;5010484;28;20134;-78
2022/01/22 01:38:53;;;;;;;23.63;3.05;;;6.60;99.90;;;;;;4981154;28;20124;-78
2022/01/22 01:41:29;;;;;;;23.33;3.13;;;6.70;99.90;;;;;;5017899;28;20046;-78
2022/01/22 01:43:54;;;;;;;25.00;2.80;;;6.70;99.90;;;;;;4978798;28;20104;-78
2022/01/22 01:46:20;;;;;;;26.20;2.78;;;6.70;99.90;;;;;;4997387;28;20042;-78
2022/01/22 01:48:47;;;;;;;25.23;2.70;;;6.70;99.90;;;;;;4993010;28;20044;-78
2022/01/22 01:51:12;;;;;;;20.35;2.42;;;6.70;99.90;;;;;;4997908;28;20042;-78
2022/01/22 01:53:58;;;;;;;23.63;2.53;;;6.70;99.90;;;;;;5016073;28;20539;-78
2022/01/22 01:59:15;;;;;;;16.75;2.13;;;6.80;99.90;;;;;;4981298;28;20054;-77
2022/01/22 02:01:41;;;;;;;20.92;2.22;;;6.80;99.90;;;;;;4998437;28;20057;-78
2022/01/22 02:04:09;;;;;;;14.10;2.20;;;6.80;99.90;;;;;;5011014;28;20125;-78
2022/01/22 02:06:35;;;;;;;16.35;2.75;;;6.70;99.90;;;;;;4977204;28;20046;-78
2022/01/22 02:09:02;;;;;;;13.57;1.67;;;6.70;99.90;;;;;;5012624;28;20042;-78
2022/01/22 02:11:29;;;;;;;17.95;2.72;;;6.80;99.90;;;;;;4995387;28;20041;-78
2022/01/22 02:24:46;;;;;;;17.77;1.87;;;6.80;99.90;;;;;;4977939;28;20054;-78
2022/01/22 02:27:12;;;;;;;10.93;1.42;;;6.70;99.90;;;;;;5011107;28;20041;-79
2022/01/22 02:29:38;;;;;;;11.52;1.25;;;6.80;99.90;;;;;;4997430;28;20596;-78
2022/01/22 02:32:46;;;;;;;12.13;1.63;;;6.80;99.90;;;;;;5011307;28;20034;-79
2022/01/22 02:35:24;;;;;;;12.05;1.10;;;6.80;99.90;;;;;;4999161;28;20050;-79
2022/01/22 02:37:57;;;;;;;6.85;1.30;;;6.80;99.90;;;;;;4997842;28;20058;-78
2022/01/22 02:40:29;;;;;;;8.77;1.23;;;6.80;99.90;;;;;;4997076;28;20047;-78
2022/01/22 02:42:55;;;;;;;9.88;1.33;;;6.80;99.90;;;;;;5013403;28;20050;-78
2022/01/22 02:45:23;;;;;;;13.15;1.30;;;6.80;99.90;;;;;;4979537;28;20054;-78
2022/01/22 02:47:50;;;;;;;13.23;1.42;;;6.80;99.90;;;;;;4943466;28;1032472;-78
2022/01/22 02:50:16;;;;;;;10.48;1.25;;;6.80;99.90;;;;;;4978838;28;20068;-78
2022/01/22 02:52:42;;;;;;;10.80;0.88;;;6.90;99.90;;;;;;5011317;28;20042;-79
2022/01/22 02:55:11;;;;;;;9.30;1.17;;;6.80;99.90;;;;;;5000065;28;20451;-78
2022/01/22 02:57:37;;;;;;;10.20;1.05;;;6.80;99.90;;;;;;4979234;28;20081;-78
2022/01/22 03:00:06;;;;;;;7.57;1.27;;;6.80;99.90;;;;;;4977307;28;20065;-79
2022/01/22 03:02:31;;;;;;;10.52;1.38;;;6.80;99.90;;;;;;5012867;28;20053;-78
2022/01/22 03:04:57;;;;;;;6.45;1.25;;;6.80;99.90;;;;;;4996716;28;20038;-79
2022/01/22 03:07:24;;;;;;;5.63;1.00;;;6.70;99.90;;;;;;4980786;28;20069;-78
2022/01/22 03:09:51;;;;;;;8.15;0.85;;;6.80;99.90;;;;;;4984116;28;20121;-79
2022/01/22 03:12:48;;;;;;;7.60;1.23;;;6.80;99.90;;;;;;5009613;28;20093;-78
2022/01/22 03:23:08;;;;;;;11.85;1.08;;;6.80;99.90;;;;;;5008060;28;20091;-78
2022/01/22 03:28:22;;;;;;;6.00;1.27;;;6.70;99.90;;;;;;4983953;28;20050;-78
2022/01/22 03:30:48;;;;;;;8.45;1.60;;;6.80;99.90;;;;;;4996322;28;20042;-78
2022/01/22 03:33:16;;;;;;;7.18;0.95;;;6.80;99.90;;;;;;4980830;28;20404;-79
2022/01/22 03:35:45;;;;;;;6.55;0.95;;;6.80;99.90;;;;;;4982178;28;20099;-78
2022/01/22 03:38:11;;;;;;;10.02;1.15;;;6.80;99.90;;;;;;4998840;28;20038;-78
2022/01/22 03:40:37;;;;;;;4.07;1.13;;;6.80;99.90;;;;;;5012672;28;20886;-78
2022/01/22 03:43:03;;;;;;;8.70;1.73;;;6.80;99.90;;;;;;4979756;28;20050;-78
2022/01/22 03:45:29;;;;;;;7.10;1.48;;;6.80;99.90;;;;;;4995645;28;20077;-78
2022/01/22 03:47:55;;;;;;;6.15;1.45;;;6.80;99.90;;;;;;5016747;28;20074;-78
2022/01/22 03:50:21;;;;;;;9.68;1.65;;;6.80;99.90;;;;;;5003399;28;20042;-78
2022/01/22 03:52:47;;;;;;;5.97;1.10;;;6.80;99.90;;;;;;5002789;28;20057;-78
2022/01/22 03:55:26;;;;;;;8.85;1.40;;;6.80;99.90;;;;;;5018887;28;20042;-78
2022/01/22 03:57:52;;;;;;;8.93;1.35;;;6.80;99.90;;;;;;4999683;28;20073;-78
2022/01/22 04:00:18;;;;;;;9.60;1.27;;;6.80;99.90;;;;;;5001214;28;20466;-78
2022/01/22 04:03:16;;;;;;;8.10;1.23;;;6.70;99.90;;;;;;4982834;28;20046;-78
2022/01/22 04:05:34;;;;;;;8.98;1.45;;;6.70;99.90;;;;;;5003864;28;20536;-79
2022/01/22 04:10:25;;;;;;;10.32;1.77;;;6.70;99.90;;;;;;5003299;28;20073;-78
2022/01/22 04:15:26;;;;;;;8.60;1.60;;;6.70;99.90;;;;;;5002683;28;20081;-78
2022/01/22 04:26:20;;;;;;;6.28;1.15;;;6.70;99.90;;;;;;5002189;28;20054;-78
2022/01/22 04:28:45;;;;;;;14.30;1.45;;;6.70;99.90;;;;;;5001208;28;20389;-78
2022/01/22 04:31:11;;;;;;;7.68;0.98;;;6.70;99.90;;;;;;4984808;28;20052;-78
2022/01/22 04:33:37;;;;;;;7.05;1.08;;;6.70;99.90;;;;;;4980008;28;20044;-78
2022/01/22 04:36:03;;;;;;;4.53;1.10;;;6.70;99.90;;;;;;5015128;28;20042;-78
2022/01/22 04:38:28;;;;;;;7.32;0.90;;;6.70;99.90;;;;;;4996545;28;20393;-78
2022/01/22 04:40:54;;;;;;;5.93;0.93;;;6.70;99.90;;;;;;4999548;28;20051;-78
2022/01/22 04:43:20;;;;;;;4.00;0.90;;;6.70;99.90;;;;;;5012346;28;20614;-78
2022/01/22 04:46:09;;;;;;;3.92;0.80;;;6.70;99.90;;;;;;5012375;28;20042;-78
2022/01/22 04:49:06;;;;;;;4.78;0.70;;;6.70;99.90;;;;;;4998053;28;20060;-78
2022/01/22 04:57:15;;;;;;;5.65;0.82;;;6.70;99.90;;;;;;4998250;28;20054;-77
2022/01/22 04:59:40;;;;;;;8.85;1.75;;;6.70;99.90;;;;;;5013287;28;20061;-77
2022/01/22 05:02:06;;;;;;;5.22;1.25;;;6.60;99.90;;;;;;4999000;28;20042;-78
2022/01/22 05:04:32;;;;;;;5.75;0.93;;;6.60;99.90;;;;;;4981629;28;20088;-78
2022/01/22 05:06:57;;;;;;;8.70;0.82;;;6.70;99.90;;;;;;5000605;28;20404;-77
2022/01/22 05:09:23;;;;;;;10.85;1.00;;;6.70;99.90;;;;;;4964373;28;20137;-78
2022/01/22 05:11:49;;;;;;;3.63;0.63;;;7.30;99.90;;;;;;4999258;28;20405;-78
2022/01/22 05:14:14;;;;;;;5.93;0.95;;;6.70;99.90;;;;;;4981392;28;20054;-78
2022/01/22 05:16:40;;;;;;;2.97;0.63;;;6.60;99.90;;;;;;4999998;28;20546;-78
2022/01/22 05:19:18;;;;;;;3.30;0.68;;;6.60;99.90;;;;;;5013974;28;20417;-78
2022/01/22 05:21:45;;;;;;;4.75;0.77;;;6.70;99.90;;;;;;4979384;28;20085;-78
2022/01/22 05:24:16;;;;;;;6.22;0.80;;;6.70;99.90;;;;;;4994112;28;20536;-78
2022/01/22 05:32:34;;;;;;;4.78;1.00;;;6.70;99.90;;;;;;4996002;28;20412;-78
2022/01/22 05:37:44;;;;;;;7.00;1.00;;;6.70;99.90;;;;;;4976230;28;20058;-78
2022/01/22 05:40:10;;;;;;;4.38;1.17;;;6.70;99.90;;;;;;4995019;28;20516;-78
2022/01/22 05:42:36;;;;;;;6.85;1.13;;;6.70;99.90;;;;;;4980298;28;20057;-78
2022/01/22 05:45:04;;;;;;;7.07;1.13;;;6.70;99.90;;;;;;5011914;28;20117;-78
2022/01/22 05:47:29;;;;;;;8.13;1.30;;;6.70;99.90;;;;;;4998334;28;20084;-78
2022/01/22 05:49:55;;;;;;;7.97;1.60;;;6.70;99.90;;;;;;4996488;28;21579;-78
2022/01/22 05:52:30;;;;;;;5.13;1.40;;;6.70;99.90;;;;;;4981575;28;20053;-78
2022/01/22 06:00:13;;;;;;;6.78;1.40;;;6.70;99.90;;;;;;4996777;28;20050;-78
2022/01/22 06:02:39;;;;;;;6.75;1.48;;;6.70;99.90;;;;;;4980373;28;20049;-78
2022/01/22 06:05:05;;;;;;;9.35;2.28;;;6.70;99.90;;;;;;5000429;28;20044;-78
2022/01/22 06:07:30;;;;;;;11.55;1.45;;;6.70;99.90;;;;;;4995083;28;20100;-79
2022/01/22 06:12:56;;;;;;;7.82;1.55;;;6.60;99.90;;;;;;5011682;28;20064;-78
2022/01/22 06:15:22;;;;;;;6.63;2.03;;;6.60;99.90;;;;;;4998358;28;20038;-78
2022/01/22 06:17:47;;;;;;;8.35;1.58;;;6.70;99.90;;;;;;4995416;28;20091;-78
2022/01/22 06:20:13;;;;;;;10.80;1.60;;;6.70;99.90;;;;;;4981956;28;20046;-78
2022/01/22 06:22:42;;;;;;;11.18;1.60;;;6.70;99.90;;;;;;5010219;28;20042;-78
2022/01/22 06:25:09;;;;;;;9.65;1.75;;;6.70;99.90;;;;;;4997306;28;20045;-78
2022/01/22 06:27:34;;;;;;;5.88;1.23;;;6.70;99.90;;;;;;4979667;28;20080;-78
2022/01/22 06:30:00;;;;;;;9.07;1.58;;;6.70;99.90;;;;;;4999883;28;20070;-78
2022/01/22 06:32:25;;;;;;;7.60;1.58;;;6.70;99.90;;;;;;4980104;28;20060;-78
2022/01/22 06:34:51;;;;;;;5.85;1.55;;;6.70;99.90;;;;;;5017720;28;20037;-78
2022/01/22 06:37:17;;;;;;;5.70;1.80;;;6.70;99.90;;;;;;4962241;28;20495;-78
2022/01/22 06:41:44;;;;;;;6.70;1.92;;;6.60;99.90;;;;;;5013732;28;20127;-78
2022/01/22 06:42:38;;;;;;;6.97;1.80;;;6.70;99.90;;;;;;4997420;28;20049;-79
2022/01/22 06:45:05;;;;;;;4.00;2.00;;;6.70;99.90;;;;;;4977671;28;20078;-78
2022/01/22 06:47:32;;;;;;;11.32;1.90;;;6.70;99.90;;;;;;4998402;28;20038;-78
2022/01/22 06:49:58;;;;;;;4.75;1.48;;;6.60;99.90;;;;;;4998836;28;20045;-78
2022/01/22 06:52:24;;;;;;;5.25;1.38;;;6.60;99.90;;;;;;4984225;28;20038;-78
2022/01/22 06:54:51;;;;;;;3.85;1.33;;;6.60;99.90;;;;;;4997920;28;20088;-78
2022/01/22 06:57:16;;;;;;;5.15;1.48;;;6.60;99.90;;;;;;4977230;28;20394;-78
2022/01/22 06:59:42;;;;;;;8.23;0.95;;;6.60;99.90;;;;;;5015730;28;20130;-78
2022/01/22 07:02:08;;;;;;;6.10;0.95;;;6.50;99.90;;;;;;5013143;28;20046;-78
2022/01/22 07:04:37;;;;;;;3.25;0.90;;;6.60;99.90;;;;;;4966521;28;20045;-78
2022/01/22 07:07:05;;;;;;;4.75;0.95;;;6.60;99.90;;;;;;4977506;28;20519;-78
2022/01/22 07:09:32;;;;;;;2.97;1.10;;;6.60;99.90;;;;;;4995779;28;20046;-78
2022/01/22 07:11:57;;;;;;;5.55;1.17;;;6.60;99.90;;;;;;4985520;28;20052;-78
2022/01/22 07:14:23;;;;;;;4.03;1.40;;;6.60;99.90;;;;;;4996447;28;20042;-78
2022/01/22 07:16:49;;;;;;;7.80;1.02;;;6.60;99.90;;;;;;5012206;28;20042;-78
2022/01/22 07:19:18;;;;;;;4.22;1.05;;;6.60;99.90;;;;;;4996618;28;20054;-78
2022/01/22 07:21:55;;;;;;;5.25;0.90;;;6.60;99.90;;;;;;5011374;28;20054;-78
2022/01/22 07:24:26;;;;;;;4.68;0.88;;;6.60;99.90;;;;;;4976123;28;20042;-78
2022/01/22 07:26:53;;;;;;;3.92;1.02;;;6.60;99.90;;;;;;4997371;28;20049;-78
2022/01/22 07:29:19;;;;;;;6.32;0.85;;;6.60;99.90;;;;;;4981740;28;20070;-78
2022/01/22 07:31:45;;;;;;;5.00;0.95;;;6.60;99.90;;;;;;5009908;28;20397;-78
2022/01/22 07:34:11;;;;;;;5.00;0.88;;;6.60;99.90;;;;;;4996314;28;20034;-78
2022/01/22 07:36:36;;;;;;;2.80;1.10;;;6.60;99.90;;;;;;5011727;28;20038;-78
2022/01/22 07:39:02;;;;;;;5.65;0.95;;;6.60;99.90;;;;;;4964815;28;20042;-78
2022/01/22 07:41:28;;;;;;;4.30;1.10;;;6.50;99.90;;;;;;5010836;28;20038;-78
2022/01/22 07:43:54;;;;;;;3.67;0.95;;;6.60;99.90;;;;;;4980424;28;20686;-78
2022/01/22 07:46:20;;;;;;;3.75;0.90;;;6.60;99.90;;;;;;4995560;28;20126;-78
2022/01/22 07:48:45;;;;;;;5.10;0.90;;;6.60;99.90;;;;;;4981434;28;20047;-78
2022/01/22 07:51:12;;;;;;;3.83;0.90;;;6.50;99.90;;;;;;4979527;28;20042;-78
2022/01/22 07:53:38;;;;;;;2.15;0.77;;;6.50;99.90;;;;;;4998470;28;20034;-78
2022/01/22 07:56:04;;;;;;;4.40;0.88;;;6.50;99.90;;;;;;5010698;28;20046;-78
2022/01/22 07:58:30;;;;;;;3.53;0.80;;;6.50;99.90;;;;;;4997180;28;20035;-77
2022/01/22 08:00:56;;;;;;;3.05;1.27;;;6.40;99.90;;;;;;4977707;28;20080;-77
2022/01/22 08:03:23;;;;;;;3.22;1.02;;;6.40;99.90;;;;;;5000733;28;20649;-77
2022/01/22 08:05:54;;;;;;;4.47;0.70;;;6.40;99.90;;;;;;4998837;28;20056;-77
2022/01/22 08:08:20;;;;;;;3.53;0.90;;;6.40;99.90;;;;;;5005251;28;20033;-78
2022/01/22 08:10:46;;;;;;;6.25;1.35;;;6.40;99.90;;;;;;5017167;28;20042;-77
2022/01/22 08:13:12;;;;;;;4.45;0.90;;;6.40;99.90;;;;;;5007947;28;20049;-78
2022/01/22 08:15:37;;;;;;;4.97;1.20;;;6.40;99.90;;;;;;4996089;28;20045;-77
2022/01/22 08:18:05;;;;;;;7.55;1.13;;;6.40;99.90;;;;;;5012652;28;20026;-77
2022/01/22 08:20:31;;;;;;;8.93;1.20;;;6.40;99.90;;;;;;4963202;28;20041;-77
2022/01/22 08:22:57;;;;;;;5.75;1.02;;;6.40;99.90;;;;;;4978498;28;20493;-76
2022/01/22 08:25:24;;;;;;;4.30;1.42;;;6.40;99.90;;;;;;4978311;28;20042;-77
2022/01/22 08:30:34;;;;;;;4.97;1.23;;;6.50;99.90;;;;;;5014604;28;20052;-77
2022/01/22 08:38:16;;;;;;;7.60;1.33;;;6.50;99.90;;;;;;4990089;28;20043;-77
2022/01/22 08:40:42;;;;;;;11.07;1.75;;;6.50;99.90;;;;;;4997122;28;20561;-77
2022/01/22 08:43:07;;;;;;;8.88;0.95;;;6.50;99.90;;;;;;4992220;28;20053;-77
2022/01/22 08:45:34;;;;;;;10.80;3.30;;;6.40;99.90;;;;;;5013101;28;20476;-77
2022/01/22 08:48:00;;;;;;;7.72;1.25;;;6.50;99.90;;;;;;4976472;28;20120;-77
2022/01/22 08:50:26;;;;;;;7.50;1.50;;;6.50;99.90;;;;;;4991757;28;20050;-76
2022/01/22 08:52:51;;;;;;;7.57;1.33;;;6.50;99.90;;;;;;5000031;28;20042;-77
2022/01/22 08:55:17;;;;;;;7.43;1.13;;;6.50;99.90;;;;;;4979658;28;20057;-77
2022/01/22 08:57:45;;;;;;;7.53;1.17;;;6.50;99.90;;;;;;5013441;28;20524;-77
2022/01/22 09:00:11;;;;;;;8.90;1.20;;;6.50;99.90;;;;;;4997325;28;20101;-76
2022/01/22 09:02:37;;;;;;;5.00;1.17;;;6.50;99.90;;;;;;4971177;28;20502;-77
2022/01/22 09:05:03;;;;;;;10.77;1.33;;;6.60;99.90;;;;;;4994753;28;20045;-76
2022/01/22 09:07:28;;;;;;;12.25;1.90;;;6.50;99.90;;;;;;4978362;28;20401;-77
2022/01/22 09:09:54;;;;;;;9.50;1.70;;;6.50;99.90;;;;;;4994216;28;20049;-77
2022/01/22 09:12:19;;;;;;;9.45;2.20;;;6.60;99.90;;;;;;4972194;28;20042;-77
2022/01/22 09:14:46;;;;;;;13.73;1.63;;;6.60;99.90;;;;;;5007558;28;20042;-77
2022/01/22 09:17:13;;;;;;;12.90;1.80;;;6.60;99.90;;;;;;5009449;28;20049;-76
2022/01/22 09:19:39;;;;;;;12.43;1.90;;;6.60;99.90;;;;;;4996686;28;20034;-77
2022/01/22 09:22:06;;;;;;;7.13;1.23;;;6.70;99.90;;;;;;4996841;28;20470;-76
2022/01/22 09:24:32;;;;;;;10.77;1.95;;;6.60;99.90;;;;;;5013423;28;20457;-77
2022/01/22 09:27:01;;;;;;;12.13;2.35;;;6.60;99.90;;;;;;4999979;28;20038;-77
2022/01/22 09:29:27;;;;;;;8.77;1.95;;;6.60;99.90;;;;;;4977759;28;20623;-77
2022/01/22 09:31:54;;;;;;;9.45;1.98;;;6.70;99.90;;;;;;5009955;28;20052;-77
2022/01/22 09:34:20;;;;;;;18.10;2.33;;;6.60;99.90;;;;;;4995858;28;20035;-76
2022/01/22 09:36:46;;;;;;;12.50;2.25;;;6.70;99.90;;;;;;4998471;28;20038;-77
2022/01/22 09:39:11;;;;;;;12.10;1.92;;;6.70;99.90;;;;;;4995515;28;20049;-77
2022/01/22 09:41:37;;;;;;;12.48;1.92;;;6.60;99.90;;;;;;4980224;28;20039;-76
2022/01/22 09:44:03;;;;;;;10.93;2.28;;;6.70;99.90;;;;;;4974530;28;20044;-76
2022/01/22 09:46:29;;;;;;;10.02;1.85;;;6.80;99.90;;;;;;4977656;28;20042;-77
2022/01/22 09:48:56;;;;;;;13.60;1.83;;;6.70;99.90;;;;;;4976995;28;20049;-77
2022/01/22 09:51:21;;;;;;;14.95;3.03;;;6.80;99.90;;;;;;4976102;28;20496;-77
2022/01/22 09:53:48;;;;;;;14.52;3.13;;;6.70;99.90;;;;;;4992607;28;20050;-77
2022/01/22 09:56:20;;;;;;;8.07;2.00;;;6.80;99.90;;;;;;4998917;28;20601;-77
2022/01/22 09:58:46;;;;;;;11.77;2.65;;;6.70;99.90;;;;;;4981479;28;20069;-77
2022/01/22 10:01:27;;;;;;;10.60;1.92;;;6.80;99.90;;;;;;4999708;28;20038;-77
2022/01/22 10:04:01;;;;;;;10.27;2.58;;;6.80;99.90;;;;;;5014066;28;20048;-76
2022/01/22 10:06:32;;;;;;;8.93;1.83;;;6.80;99.90;;;;;;5015142;28;20597;-77
2022/01/22 10:09:12;;;;;;;15.82;2.13;;;6.80;99.90;;;;;;4998068;28;20385;-77
2022/01/22 10:11:38;;;;;;;12.05;2.20;;;6.90;99.90;;;;;;4980628;28;20038;-77
2022/01/22 10:14:04;;;;;;;10.05;2.22;;;6.80;99.90;;;;;;5015204;28;20046;-77
2022/01/22 10:16:32;;;;;;;10.02;1.92;;;6.80;99.90;;;;;;5000584;28;20065;-76
2022/01/22 10:19:19;;;;;;;11.25;2.28;;;6.90;99.90;;;;;;4980520;28;20042;-77
2022/01/22 10:21:57;;;;;;;13.00;2.08;;;6.90;99.90;;;;;;5014855;28;20452;-77
2022/01/22 10:24:43;;;;;;;16.10;1.80;;;7.00;99.90;;;;;;4979873;28;20042;-77
2022/01/22 10:27:23;;;;;;;;;;;6.90;99.90;;;;;;4999835;28;20045;-77
2022/01/22 10:29:57;;;;;;;9.65;1.70;;;7.00;99.90;;;;;;4996824;28;19947;-77
2022/01/22 10:32:36;;;;;;;11.80;2.13;;;6.90;99.90;;;;;;5011221;28;20077;-77
2022/01/22 10:35:08;;;;;;;17.58;2.60;;;7.00;99.90;;;;;;4977821;28;20046;-75
2022/01/22 10:37:34;;;;;;;9.38;1.55;;;7.00;99.90;;;;;;5010222;28;20570;-76
2022/01/22 10:40:37;;;;;;;12.63;1.50;;;7.00;99.90;;;;;;4997669;28;20050;-77
2022/01/22 10:43:32;;;;;;;13.65;1.42;;;7.00;99.90;;;;;;4925432;29;20126;-76
2022/01/22 10:46:20;;;;;;;13.10;1.90;;;7.10;99.90;;;;;;4999118;28;20448;-77
2022/01/22 10:49:04;;;;;;;8.60;2.15;;;7.10;99.90;;;;;;5011284;28;20081;-77
2022/01/22 10:51:42;;;;;;;11.75;1.63;;;7.10;99.90;;;;;;5011366;28;20050;-77
2022/01/22 10:54:10;;;;;;;10.82;1.60;;;7.00;99.90;;;;;;4997422;28;20056;-76
2022/01/22 10:56:39;;;;;;;16.23;2.03;;;7.10;99.90;;;;;;4995277;28;20419;-76
2022/01/22 10:59:13;;;;;;;13.55;1.40;;;7.10;99.90;;;;;;5002251;28;20073;-77
2022/01/22 11:01:48;;;;;;;10.57;1.30;;;7.10;99.90;;;;;;4984689;28;20050;-76
2022/01/22 11:04:22;;;;;;;7.82;1.58;;;7.10;99.90;;;;;;5014827;28;20120;-77
2022/01/22 11:07:00;;;;;;;17.67;2.92;;;7.20;99.90;;;;;;5011606;28;20121;-77
2022/01/22 11:09:29;;;;;;;11.40;1.63;;;7.20;99.90;;;;;;5014797;28;20046;-76
2022/01/22 11:11:56;;;;;;;13.45;1.40;;;7.20;99.90;;;;;;4995955;28;20057;-77
2022/01/22 11:14:22;;;;;;;12.38;3.15;;;7.20;99.90;;;;;;4998178;28;20088;-77
2022/01/22 11:16:50;;;;;;;12.02;2.00;;;7.20;99.90;;;;;;4996640;28;20078;-77
2022/01/22 11:19:18;;;;;;;17.52;1.85;;;7.20;99.90;;;;;;4998232;28;20088;-77
2022/01/22 11:21:48;;;;;;;11.52;1.40;;;7.20;99.90;;;;;;5014477;28;20062;-77
2022/01/22 11:24:16;;;;;;;11.57;1.92;;;7.10;99.90;;;;;;4997930;28;20927;-77
2022/01/22 11:26:47;;;;;;;10.32;1.50;;;7.20;99.90;;;;;;4998483;28;20039;-77
2022/01/22 11:29:15;;;;;;;9.40;1.70;;;7.10;99.90;;;;;;4999738;28;20497;-77
2022/01/22 11:31:45;;;;;;;10.80;1.80;;;7.20;99.90;;;;;;4999365;28;20450;-77
2022/01/22 11:34:15;;;;;;;10.25;1.95;;;7.10;99.90;;;;;;4998564;28;20042;-76
2022/01/22 11:37:04;;;;;;;12.45;1.65;;;7.10;99.90;;;;;;4978641;28;20042;-77
2022/01/22 11:39:30;;;;;;;13.02;2.58;;;7.10;99.90;;;;;;5015351;28;20493;-77
2022/01/22 11:41:58;;;;;;;12.50;1.90;;;7.10;99.90;;;;;;5007511;28;20046;-76
2022/01/22 11:44:28;;;;;;;14.00;2.20;;;7.10;99.90;;;;;;4980699;28;20046;-76
2022/01/22 11:47:10;;;;;;;14.35;2.85;;;7.10;99.90;;;;;;5014432;28;20042;-76
2022/01/22 11:49:37;;;;;;;13.35;2.67;;;7.10;99.90;;;;;;5001818;28;20046;-77
2022/01/22 11:52:11;;;;;;;12.23;2.53;;;7.10;99.90;;;;;;5001654;28;20034;-76
2022/01/22 11:55:05;;;;;;;15.43;2.53;;;7.20;99.90;;;;;;5001038;28;20076;-76
2022/01/22 11:57:32;;;;;;;13.27;3.00;;;7.20;99.90;;;;;;4994507;28;20041;-76
2022/01/22 12:00:30;;;;;;;16.55;3.10;;;7.20;99.90;;;;;;4998831;28;20438;-76
2022/01/22 12:03:08;;;;;;;9.77;2.63;;;7.20;99.90;;;;;;4956032;28;20231;-77
2022/01/22 12:05:52;;;;;;;17.52;3.33;;;7.20;99.90;;;;;;4982182;28;20050;-77
2022/01/22 12:08:19;;;;;;;13.63;3.22;;;7.20;99.90;;;;;;5011286;28;20050;-77
2022/01/22 12:16:14;;;;;;;11.15;3.47;;;7.20;99.90;;;;;;5010653;28;20054;-77
2022/01/22 12:18:56;;;;;;;14.00;2.92;;;7.10;99.90;;;;;;4996922;28;20042;-77
2022/01/22 12:21:37;;;;;;;13.48;3.17;;;7.20;99.90;;;;;;5012770;28;20050;-77
2022/01/22 12:24:08;;;;;;;13.43;3.47;;;7.20;99.90;;;;;;5013217;28;20137;-77
2022/01/22 12:26:43;;;;;;;13.65;3.53;;;7.20;99.90;;;;;;5007860;28;20104;-77
2022/01/22 12:29:30;;;;;;;12.52;3.03;;;7.20;99.90;;;;;;4975383;28;20397;-77
2022/01/22 12:32:14;;;;;;;13.05;3.13;;;7.20;99.90;;;;;;4993999;28;20104;-76
2022/01/22 12:35:00;;;;;;;15.05;2.63;;;7.20;99.90;;;;;;4978636;28;20060;-76
2022/01/22 12:37:28;;;;;;;;;;;7.20;99.90;;;;;;4979741;28;21786;-77
2022/01/22 12:39:56;;;;;;;13.05;2.90;;;7.30;99.90;;;;;;4980115;28;19997;-76
2022/01/22 12:42:45;;;;;;;12.07;2.72;;;7.30;99.90;;;;;;5014002;28;20030;-77
2022/01/22 12:45:11;;;;;;;16.13;2.90;;;7.30;99.90;;;;;;5008633;28;20065;-76
2022/01/22 12:47:44;;;;;;;14.75;2.47;;;7.30;99.90;;;;;;4996915;28;20046;-77
2022/01/22 12:50:10;;;;;;;13.32;2.75;;;7.30;99.90;;;;;;5009455;28;20069;-77
2022/01/22 12:52:37;;;;;;;13.13;2.15;;;7.30;99.90;;;;;;4977014;28;20070;-77
2022/01/22 12:55:18;;;;;;;15.38;3.13;;;7.30;99.90;;;;;;4995369;28;20148;-77
2022/01/22 12:57:44;;;;;;;9.38;1.80;;;7.40;99.90;;;;;;4978468;28;20097;-77
2022/01/22 13:00:14;;;;;;;12.85;2.33;;;7.30;99.90;;;;;;4992871;28;20054;-77
2022/01/22 13:02:53;;;;;;;12.43;1.88;;;7.40;99.90;;;;;;4979326;28;20050;-77
2022/01/22 13:05:21;;;;;;;14.23;2.55;;;7.30;99.90;;;;;;4978603;28;20132;-76
2022/01/22 13:07:54;;;;;;;12.55;1.60;;;7.30;99.90;;;;;;4997239;28;20393;-77
2022/01/22 13:10:28;;;;;;;11.55;1.83;;;7.40;99.90;;;;;;5011389;28;20108;-77
2022/01/22 13:12:56;;;;;;;11.32;1.58;;;7.30;99.90;;;;;;4998024;28;20057;-77
2022/01/22 13:15:22;;;;;;;7.40;1.40;;;7.30;99.90;;;;;;4991094;28;20513;-77
2022/01/22 13:17:57;;;;;;;11.38;2.00;;;7.30;99.90;;;;;;4993896;28;20436;-77
2022/01/22 13:20:25;;;;;;;11.63;1.33;;;7.30;99.90;;;;;;4984264;28;20089;-77
2022/01/22 13:22:51;;;;;;;12.70;1.25;;;7.30;99.90;;;;;;4973636;28;20049;-77
2022/01/22 13:25:19;;;;;;;6.85;0.98;;;7.30;99.90;;;;;;5007258;28;20044;-77
2022/01/22 13:27:58;;;;;;;13.60;1.85;;;7.30;99.90;;;;;;4978827;28;20108;-77
2022/01/22 13:30:32;;;;;;;8.90;1.60;;;7.30;99.90;;;;;;4995183;28;20131;-77
2022/01/22 13:33:03;;;;;;;8.95;1.45;;;7.20;99.90;;;;;;4995384;28;20121;-77
2022/01/22 13:44:59;;;;;;;17.55;1.80;;;7.20;99.90;;;;;;4995521;28;20504;-76
2022/01/22 13:49:21;;;;;;;8.52;1.48;;;7.20;99.90;;;;;;4995989;28;20057;-77
2022/01/22 13:51:48;;;;;;;12.77;1.63;;;7.20;99.90;;;;;;5006072;28;21053;-77
2022/01/22 13:54:15;;;;;;;8.63;1.75;;;7.10;99.90;;;;;;4970400;28;20048;-78
2022/01/22 13:56:50;;;;;;;12.85;1.75;;;7.10;99.90;;;;;;4976431;28;20077;-77
2022/01/22 13:59:21;;;;;;;11.90;2.33;;;7.20;99.90;;;;;;4977560;28;20050;-78
2022/01/22 14:04:16;;;;;;;10.48;1.75;;;7.10;99.90;;;;;;5012424;28;20061;-81
2022/01/22 14:06:42;;;;;;;15.07;1.27;;;7.20;99.90;;;;;;4995617;28;20074;-81
2022/01/22 14:09:19;;;;;;;11.55;1.90;;;7.80;99.90;;;;;;4975087;28;20046;-80
2022/01/22 14:12:05;;;;;;;11.95;1.45;;;7.10;99.90;;;;;;5005555;28;20041;-80
2022/01/22 14:14:55;;;;;;;10.18;0.90;;;7.10;99.90;;;;;;4992625;28;20038;-80
2022/01/22 14:17:22;;;;;;;10.75;1.88;;;7.10;99.90;;;;;;4979305;28;20096;-81
2022/01/22 14:20:03;;;;;;;9.88;1.30;;;7.10;99.90;;;;;;4995455;28;20053;-80
2022/01/22 14:22:29;;;;;;;13.48;1.80;;;7.00;99.90;;;;;;5016136;28;20054;-80
2022/01/22 14:25:13;;;;;;;8.88;1.25;;;7.10;99.90;;;;;;4960567;28;20053;-80
2022/01/22 14:27:39;;;;;;;9.18;1.30;;;7.10;99.90;;;;;;4993830;28;20121;-80
2022/01/22 14:30:05;;;;;;;11.02;1.45;;;7.10;99.90;;;;;;4980523;28;20548;-80
2022/01/22 14:32:31;;;;;;;8.20;0.85;;;7.10;99.90;;;;;;4998610;28;20037;-80
2022/01/22 14:34:59;;;;;;;12.98;1.55;;;7.10;99.90;;;;;;5009654;28;20042;-80
2022/01/22 14:37:31;;;;;;;11.90;1.40;;;7.10;99.90;;;;;;4980744;28;20046;-80
2022/01/22 14:45:28;;;;;;;5.78;1.23;;;7.00;99.90;;;;;;5007706;28;20058;-80
2022/01/22 14:47:57;;;;;;;10.85;1.98;;;7.10;99.90;;;;;;4994737;28;20081;-80
2022/01/22 14:50:25;;;;;;;8.32;1.33;;;7.10;99.90;;;;;;5010618;28;20038;-80
2022/01/22 14:52:55;;;;;;;12.35;1.15;;;7.00;99.90;;;;;;4996644;28;20057;-80
2022/01/22 14:55:21;;;;;;;6.30;1.33;;;7.10;99.90;;;;;;5007763;28;20061;-80
2022/01/22 14:57:48;;;;;;;10.75;1.30;;;7.10;99.90;;;;;;4975237;28;20085;-80
2022/01/22 15:00:16;;;;;;;9.93;1.67;;;7.00;99.90;;;;;;4995610;28;20040;-80
2022/01/22 15:02:42;;;;;;;7.97;1.42;;;7.00;99.90;;;;;;4995322;28;20043;-80